sensor_id;sensor_type;location;lat;lon;timestamp;pressure;altitude;pressure_sealevel;temperature;humidity
33486;BME280;19824;52.098;5.004;2023-04-07T05:02:39;101599.38;;;10.77;91.78
33486;BME280;19824;52.098;5.004;2023-04-07T05:05:24;101602.78;;;10.79;91.76
33486;BME280;19824;52.098;5.004;2023-04-07T05:07:54;101598.41;;;10.78;91.97
33486;BME280;19824;52.098;5.004;2023-04-07T05:10:30;101597.44;;;10.79;91.77
33486;BME280;19824;52.098;5.004;2023-04-07T05:13:00;101592.97;;;10.79;91.79
33486;BME280;19824;52.098;5.004;2023-04-07T05:15:39;101604.22;;;10.83;91.76
33486;BME280;19824;52.098;5.004;2023-04-07T05:18:12;101605.69;;;10.87;91.73
33486;BME280;19824;52.098;5.004;2023-04-07T05:20:49;101599.63;;;10.85;91.96
33486;BME280;19824;52.098;5.004;2023-04-07T05:23:20;101605.91;;;10.84;91.74
33486;BME280;19824;52.098;5.004;2023-04-07T05:25:56;101607.09;;;10.91;91.98
33486;BME280;19824;52.098;5.004;2023-04-07T05:28:26;101608.34;;;10.87;91.73
33486;BME280;19824;52.098;5.004;2023-04-07T05:31:03;101610.88;;;10.88;92.04
33486;BME280;19824;52.098;5.004;2023-04-07T05:33:36;101608.06;;;10.90;91.43
33486;BME280;19824;52.098;5.004;2023-04-07T05:36:14;101612.41;;;10.91;91.51
33486;BME280;19824;52.098;5.004;2023-04-07T05:38:44;101608.78;;;10.92;91.64
33486;BME280;19824;52.098;5.004;2023-04-07T05:41:20;101617.75;;;10.91;91.59
33486;BME280;19824;52.098;5.004;2023-04-07T05:43:50;101622.00;;;10.93;91.51
33486;BME280;19824;52.098;5.004;2023-04-07T05:46:27;101619.19;;;10.95;90.91
33486;BME280;19824;52.098;5.004;2023-04-07T05:49:00;101627.19;;;10.95;91.25
33486;BME280;19824;52.098;5.004;2023-04-07T05:51:46;101627.44;;;10.92;91.59
33486;BME280;19824;52.098;5.004;2023-04-07T05:54:16;101626.47;;;10.93;91.13
33486;BME280;19824;52.098;5.004;2023-04-07T05:56:53;101628.06;;;10.95;91.29
33486;BME280;19824;52.098;5.004;2023-04-07T05:59:24;101626.47;;;10.93;90.90
33486;BME280;19824;52.098;5.004;2023-04-07T06:02:01;101629.34;;;11.01;90.86
33486;BME280;19824;52.098;5.004;2023-04-07T06:04:34;101630.19;;;11.01;90.30
33486;BME280;19824;52.098;5.004;2023-04-07T06:07:11;101633.34;;;11.06;90.88
33486;BME280;19824;52.098;5.004;2023-04-07T06:09:42;101636.59;;;11.10;90.36
33486;BME280;19824;52.098;5.004;2023-04-07T06:12:18;101641.53;;;11.14;90.09
33486;BME280;19824;52.098;5.004;2023-04-07T06:14:52;101636.19;;;11.14;90.02
33486;BME280;19824;52.098;5.004;2023-04-07T06:17:29;101640.69;;;11.14;90.27
33486;BME280;19824;52.098;5.004;2023-04-07T06:20:03;101640.69;;;11.14;90.59
33486;BME280;19824;52.098;5.004;2023-04-07T06:22:40;101637.63;;;11.18;90.10
33486;BME280;19824;52.098;5.004;2023-04-07T06:25:17;101644.66;;;11.19;89.85
33486;BME280;19824;52.098;5.004;2023-04-07T06:27:48;101644.81;;;11.18;90.69
33486;BME280;19824;52.098;5.004;2023-04-07T06:30:24;101644.28;;;11.24;90.28
33486;BME280;19824;52.098;5.004;2023-04-07T06:33:01;101644.28;;;11.24;90.30
33486;BME280;19824;52.098;5.004;2023-04-07T06:35:34;101647.53;;;11.27;90.57
33486;BME280;19824;52.098;5.004;2023-04-07T06:38:11;101647.16;;;11.32;90.56
33486;BME280;19824;52.098;5.004;2023-04-07T06:40:42;101652.34;;;11.33;90.41
33486;BME280;19824;52.098;5.004;2023-04-07T06:43:19;101661.22;;;11.34;90.40
33486;BME280;19824;52.098;5.004;2023-04-07T06:45:50;101659.59;;;11.42;90.23
33486;BME280;19824;52.098;5.004;2023-04-07T06:48:26;101662.88;;;11.35;90.22
33486;BME280;19824;52.098;5.004;2023-04-07T06:50:59;101663.59;;;11.37;90.40
33486;BME280;19824;52.098;5.004;2023-04-07T06:53:36;101662.63;;;11.38;89.98
33486;BME280;19824;52.098;5.004;2023-04-07T06:56:09;101665.91;;;11.41;89.83
33486;BME280;19824;52.098;5.004;2023-04-07T06:58:46;101673.28;;;11.38;90.18
33486;BME280;19824;52.098;5.004;2023-04-07T07:01:17;101672.06;;;11.42;90.10
33486;BME280;19824;52.098;5.004;2023-04-07T07:03:53;101675.13;;;11.37;90.75
33486;BME280;19824;52.098;5.004;2023-04-07T07:06:33;101679.34;;;11.40;90.64
33486;BME280;19824;52.098;5.004;2023-04-07T07:09:03;101686.38;;;11.41;89.98
33486;BME280;19824;52.098;5.004;2023-04-07T07:11:40;101688.31;;;11.39;90.78
33486;BME280;19824;52.098;5.004;2023-04-07T07:14:11;101679.09;;;11.43;90.10
33486;BME280;19824;52.098;5.004;2023-04-07T07:16:47;101684.44;;;11.43;90.70
33486;BME280;19824;52.098;5.004;2023-04-07T07:19:18;101684.19;;;11.46;90.49
33486;BME280;19824;52.098;5.004;2023-04-07T07:21:57;101685.88;;;11.47;90.46
33486;BME280;19824;52.098;5.004;2023-04-07T07:24:33;101689.75;;;11.54;90.78
33486;BME280;19824;52.098;5.004;2023-04-07T07:27:03;101699.19;;;11.58;90.10
33486;BME280;19824;52.098;5.004;2023-04-07T07:29:40;101698.94;;;11.61;90.12
33486;BME280;19824;52.098;5.004;2023-04-07T07:32:11;101704.28;;;11.61;90.21
33486;BME280;19824;52.098;5.004;2023-04-07T07:34:48;101706.53;;;11.65;90.57
33486;BME280;19824;52.098;5.004;2023-04-07T07:37:20;101705.19;;;11.70;90.46
33486;BME280;19824;52.098;5.004;2023-04-07T07:39:57;101713.00;;;11.63;90.20
33486;BME280;19824;52.098;5.004;2023-04-07T07:42:28;101709.06;;;11.67;90.22
33486;BME280;19824;52.098;5.004;2023-04-07T07:45:05;101718.03;;;11.66;89.44
33486;BME280;19824;52.098;5.004;2023-04-07T07:47:36;101723.53;;;11.64;89.47
33486;BME280;19824;52.098;5.004;2023-04-07T07:50:12;101720.28;;;11.61;89.31
33486;BME280;19824;52.098;5.004;2023-04-07T07:52:45;101727.31;;;11.62;89.38
33486;BME280;19824;52.098;5.004;2023-04-07T07:55:22;101728.72;;;11.66;89.58
33486;BME280;19824;52.098;5.004;2023-04-07T07:57:52;101724.72;;;11.71;88.69
33486;BME280;19824;52.098;5.004;2023-04-07T08:00:29;101732.00;;;11.69;88.41
33486;BME280;19824;52.098;5.004;2023-04-07T08:02:59;101735.81;;;11.76;88.46
33486;BME280;19824;52.098;5.004;2023-04-07T08:05:35;101735.91;;;11.85;88.01
33486;BME280;19824;52.098;5.004;2023-04-07T08:08:08;101736.63;;;11.87;88.15
33486;BME280;19824;52.098;5.004;2023-04-07T08:10:45;101740.19;;;11.97;87.64
33486;BME280;19824;52.098;5.004;2023-04-07T08:13:15;101743.84;;;11.96;87.99
33486;BME280;19824;52.098;5.004;2023-04-07T08:15:53;101744.06;;;12.04;87.65
33486;BME280;19824;52.098;5.004;2023-04-07T08:18:31;101740.16;;;12.08;87.65
33486;BME280;19824;52.098;5.004;2023-04-07T08:21:03;101742.28;;;12.14;86.94
33486;BME280;19824;52.098;5.004;2023-04-07T08:23:43;101744.19;;;12.23;87.11
33486;BME280;19824;52.098;5.004;2023-04-07T08:26:14;101748.59;;;12.34;87.65
33486;BME280;19824;52.098;5.004;2023-04-07T08:28:51;101757.91;;;12.39;86.71
33486;BME280;19824;52.098;5.004;2023-04-07T08:31:22;101761.81;;;12.35;87.13
33486;BME280;19824;52.098;5.004;2023-04-07T08:33:59;101758.16;;;12.36;86.38
33486;BME280;19824;52.098;5.004;2023-04-07T08:36:29;101763.31;;;12.49;85.87
33486;BME280;19824;52.098;5.004;2023-04-07T08:39:09;101760.47;;;12.50;85.77
33486;BME280;19824;52.098;5.004;2023-04-07T08:41:40;101764.69;;;12.53;85.70
33486;BME280;19824;52.098;5.004;2023-04-07T08:44:21;101772.16;;;12.49;85.43
33486;BME280;19824;52.098;5.004;2023-04-07T08:46:55;101768.25;;;12.53;85.53
33486;BME280;19824;52.098;5.004;2023-04-07T08:49:35;101768.09;;;12.55;84.83
33486;BME280;19824;52.098;5.004;2023-04-07T08:52:11;101774.72;;;12.60;85.08
33486;BME280;19824;52.098;5.004;2023-04-07T08:54:53;101768.13;;;12.64;84.41
33486;BME280;19824;52.098;5.004;2023-04-07T08:57:24;101776.31;;;12.63;84.67
33486;BME280;19824;52.098;5.004;2023-04-07T09:00:03;101773.63;;;12.63;84.14
33486;BME280;19824;52.098;5.004;2023-04-07T09:02:38;101779.09;;;12.61;83.71
33486;BME280;19824;52.098;5.004;2023-04-07T09:05:16;101785.56;;;12.59;83.97
33486;BME280;19824;52.098;5.004;2023-04-07T09:07:54;101781.66;;;12.63;83.37
33486;BME280;19824;52.098;5.004;2023-04-07T09:10:26;101784.88;;;12.66;83.13
33486;BME280;19824;52.098;5.004;2023-04-07T09:13:04;101785.16;;;12.63;83.25
33486;BME280;19824;52.098;5.004;2023-04-07T09:15:34;101783.66;;;12.70;82.97
33486;BME280;19824;52.098;5.004;2023-04-07T09:18:12;101785.66;;;12.77;83.34
33486;BME280;19824;52.098;5.004;2023-04-07T09:20:57;101785.38;;;12.80;82.32
33486;BME280;19824;52.098;5.004;2023-04-07T09:23:38;101787.66;;;12.85;82.64
33486;BME280;19824;52.098;5.004;2023-04-07T09:26:22;101791.03;;;12.87;83.13
33486;BME280;19824;52.098;5.004;2023-04-07T09:29:01;101790.50;;;12.93;83.26
33486;BME280;19824;52.098;5.004;2023-04-07T09:31:45;101784.97;;;12.85;82.80
33486;BME280;19824;52.098;5.004;2023-04-07T09:34:25;101787.72;;;12.94;82.83
33486;BME280;19824;52.098;5.004;2023-04-07T09:36:56;101793.91;;;12.95;83.40
33486;BME280;19824;52.098;5.004;2023-04-07T09:39:33;101790.66;;;12.91;83.39
33486;BME280;19824;52.098;5.004;2023-04-07T09:42:08;101791.22;;;12.95;82.42
33486;BME280;19824;52.098;5.004;2023-04-07T09:44:46;101790.13;;;13.07;82.66
33486;BME280;19824;52.098;5.004;2023-04-07T09:47:26;101793.25;;;13.12;81.99
33486;BME280;19824;52.098;5.004;2023-04-07T09:49:57;101795.38;;;13.08;81.57
33486;BME280;19824;52.098;5.004;2023-04-07T09:52:50;101788.91;;;13.11;81.61
33486;BME280;19824;52.098;5.004;2023-04-07T09:55:22;101792.59;;;13.19;81.31
33486;BME280;19824;52.098;5.004;2023-04-07T09:58:03;101798.63;;;13.12;80.45
33486;BME280;19824;52.098;5.004;2023-04-07T10:00:34;101795.41;;;13.18;81.07
33486;BME280;19824;52.098;5.004;2023-04-07T10:03:12;101805.13;;;13.28;80.68
33486;BME280;19824;52.098;5.004;2023-04-07T10:05:44;101798.53;;;13.32;80.63
33486;BME280;19824;52.098;5.004;2023-04-07T10:08:22;101804.13;;;13.29;80.05
33486;BME280;19824;52.098;5.004;2023-04-07T10:11:00;101797.50;;;13.24;79.90
33486;BME280;19824;52.098;5.004;2023-04-07T10:13:38;101808.47;;;13.21;79.58
33486;BME280;19824;52.098;5.004;2023-04-07T10:16:16;101816.66;;;13.19;80.19
33486;BME280;19824;52.098;5.004;2023-04-07T10:18:48;101814.13;;;13.18;80.00
33486;BME280;19824;52.098;5.004;2023-04-07T10:21:25;101810.28;;;13.11;80.20
33486;BME280;19824;52.098;5.004;2023-04-07T10:24:06;101815.75;;;13.00;79.64
33486;BME280;19824;52.098;5.004;2023-04-07T10:26:53;101818.72;;;13.06;80.18
33486;BME280;19824;52.098;5.004;2023-04-07T10:29:30;101820.16;;;13.10;80.38
33486;BME280;19824;52.098;5.004;2023-04-07T10:32:12;101821.00;;;13.11;80.41
33486;BME280;19824;52.098;5.004;2023-04-07T10:34:59;101824.63;;;13.10;79.95
33486;BME280;19824;52.098;5.004;2023-04-07T10:37:30;101816.34;;;13.13;79.68
33486;BME280;19824;52.098;5.004;2023-04-07T10:40:29;101833.34;;;13.02;79.84
33486;BME280;19824;52.098;5.004;2023-04-07T10:42:59;101836.94;;;12.92;80.38
33486;BME280;19824;52.098;5.004;2023-04-07T10:45:54;101838.38;;;12.96;79.87
33486;BME280;19824;52.098;5.004;2023-04-07T10:48:26;101835.91;;;13.04;79.68
33486;BME280;19824;52.098;5.004;2023-04-07T10:51:14;101838.84;;;13.01;79.15
33486;BME280;19824;52.098;5.004;2023-04-07T10:54:18;101843.16;;;12.92;79.54
33486;BME280;19824;52.098;5.004;2023-04-07T10:57:20;101839.34;;;12.95;79.02
33486;BME280;19824;52.098;5.004;2023-04-07T11:00:16;101845.94;;;12.91;79.58
33486;BME280;19824;52.098;5.004;2023-04-07T11:02:49;101843.47;;;12.99;79.42
33486;BME280;19824;52.098;5.004;2023-04-07T11:05:26;101842.56;;;12.89;79.36
33486;BME280;19824;52.098;5.004;2023-04-07T11:07:57;101838.91;;;12.90;79.52
33486;BME280;19824;52.098;5.004;2023-04-07T11:10:38;101845.94;;;12.91;79.82
33486;BME280;19824;52.098;5.004;2023-04-07T11:13:18;101854.41;;;12.96;79.61
33486;BME280;19824;52.098;5.004;2023-04-07T11:15:49;101846.59;;;13.04;79.43
33486;BME280;19824;52.098;5.004;2023-04-07T11:18:28;101847.00;;;13.09;78.68
33486;BME280;19824;52.098;5.004;2023-04-07T11:21:06;101853.78;;;13.13;79.40
33486;BME280;19824;52.098;5.004;2023-04-07T11:23:38;101850.00;;;13.15;79.13
33486;BME280;19824;52.098;5.004;2023-04-07T11:26:16;101850.84;;;13.16;78.69
33486;BME280;19824;52.098;5.004;2023-04-07T11:28:49;101858.16;;;13.14;78.40
33486;BME280;19824;52.098;5.004;2023-04-07T11:31:28;101859.28;;;13.21;78.40
33486;BME280;19824;52.098;5.004;2023-04-07T11:34:03;101854.41;;;13.26;78.22
33486;BME280;19824;52.098;5.004;2023-04-07T11:36:41;101858.25;;;13.33;78.23
33486;BME280;19824;52.098;5.004;2023-04-07T11:39:19;101855.97;;;13.38;78.67
33486;BME280;19824;52.098;5.004;2023-04-07T11:41:49;101858.25;;;13.33;78.61
33486;BME280;19824;52.098;5.004;2023-04-07T11:44:27;101862.53;;;13.54;79.05
33486;BME280;19824;52.098;5.004;2023-04-07T11:46:59;101869.00;;;13.61;78.34
33486;BME280;19824;52.098;5.004;2023-04-07T11:49:44;101871.13;;;13.67;77.92
33486;BME280;19824;52.098;5.004;2023-04-07T11:52:23;101867.91;;;13.73;78.55
33486;BME280;19824;52.098;5.004;2023-04-07T11:54:54;101864.84;;;13.87;77.86
33486;BME280;19824;52.098;5.004;2023-04-07T11:57:33;101870.44;;;13.74;77.89
33486;BME280;19824;52.098;5.004;2023-04-07T12:00:08;101867.31;;;13.69;77.57
33486;BME280;19824;52.098;5.004;2023-04-07T12:02:45;101875.53;;;13.77;77.58
33486;BME280;19824;52.098;5.004;2023-04-07T12:05:18;101878.91;;;13.70;77.81
33486;BME280;19824;52.098;5.004;2023-04-07T12:07:55;101884.28;;;13.79;77.30
33486;BME280;19824;52.098;5.004;2023-04-07T12:10:26;101872.69;;;13.79;77.66
33486;BME280;19824;52.098;5.004;2023-04-07T12:13:04;101882.31;;;13.81;77.54
33486;BME280;19824;52.098;5.004;2023-04-07T12:15:38;101880.75;;;13.88;77.94
33486;BME280;19824;52.098;5.004;2023-04-07T12:18:15;101885.41;;;13.96;78.02
33486;BME280;19824;52.098;5.004;2023-04-07T12:20:55;101888.50;;;13.91;77.42
33486;BME280;19824;52.098;5.004;2023-04-07T12:23:25;101896.66;;;13.90;76.93
33486;BME280;19824;52.098;5.004;2023-04-07T12:26:02;101894.00;;;13.80;77.35
33486;BME280;19824;52.098;5.004;2023-04-07T12:28:32;101895.69;;;13.81;77.04
33486;BME280;19824;52.098;5.004;2023-04-07T12:31:12;101897.50;;;13.71;77.49
33486;BME280;19824;52.098;5.004;2023-04-07T12:33:42;101906.78;;;13.67;77.03
33486;BME280;19824;52.098;5.004;2023-04-07T12:36:21;101906.09;;;13.66;77.40
33486;BME280;19824;52.098;5.004;2023-04-07T12:38:52;101904.81;;;13.69;77.42
33486;BME280;19824;52.098;5.004;2023-04-07T12:41:29;101911.28;;;13.67;76.82
33486;BME280;19824;52.098;5.004;2023-04-07T12:43:59;101911.44;;;13.66;76.63
33486;BME280;19824;52.098;5.004;2023-04-07T12:46:36;101905.06;;;13.66;76.97
33486;BME280;19824;52.098;5.004;2023-04-07T12:49:13;101916.59;;;13.58;76.56
33486;BME280;19824;52.098;5.004;2023-04-07T12:51:52;101920.28;;;13.57;77.01
33486;BME280;19824;52.098;5.004;2023-04-07T12:54:23;101922.50;;;13.52;77.62
33486;BME280;19824;52.098;5.004;2023-04-07T12:57:01;101922.78;;;13.49;76.61
33486;BME280;19824;52.098;5.004;2023-04-07T12:59:31;101930.09;;;13.47;77.27
